Time;durP1;ratioP1;P1;durP2;ratioP2;P2;SDS_P1;SDS_P2;PMS_P1;PMS_P2;Temp;Humidity;BMP_temperature;BMP_pressure;BME280_temperature;BME280_humidity;BME280_pressure;Samples;Min_cycle;Max_cycle;Signal;HPM_P1;HPM_P2
2021/12/28 00:00:41;;;;;;;41.70;17.20;;;;;;;-7.23;72.11;100396.40;86130;1303;100396;-63
2021/12/28 00:02:51;;;;;;;39.30;16.70;;;;;;;-7.19;72.23;100398.46;86101;1308;89164;-63
2021/12/28 00:05:04;;;;;;;38.40;17.10;;;;;;;-7.18;72.51;100398.56;86124;1303;93088;-65
2021/12/28 00:07:14;;;;;;;42.50;18.60;;;;;;;-7.24;72.22;100401.15;86090;1308;82961;-71
2021/12/28 00:09:23;;;;;;;37.90;16.90;;;;;;;-7.22;72.43;100397.40;86165;1308;83145;-70
2021/12/28 00:11:32;;;;;;;35.20;16.00;;;;;;;-7.22;72.50;100395.62;86132;1308;99386;-68
2021/12/28 00:13:45;;;;;;;40.10;18.00;;;;;;;-7.25;72.23;100392.31;86141;1303;86794;-67
2021/12/28 00:16:28;;;;;;;35.80;17.40;;;;;;;-7.24;72.63;100397.66;85972;1305;96016;-66
2021/12/28 00:18:39;;;;;;;41.40;18.80;;;;;;;-7.25;72.41;100389.14;86112;1304;81613;-62
2021/12/28 00:20:53;;;;;;;38.80;17.70;;;;;;;-7.22;72.47;100389.69;86121;1308;82704;-62
2021/12/28 00:23:05;;;;;;;35.10;15.70;;;;;;;-7.23;72.54;100390.98;86067;1305;100405;-62
2021/12/28 00:25:18;;;;;;;42.40;18.00;;;;;;;-7.34;72.61;100386.44;86139;1306;88196;-62
2021/12/28 00:27:31;;;;;;;40.30;17.30;;;;;;;-7.31;72.47;100382.83;86124;1305;94472;-69
2021/12/28 00:29:44;;;;;;;42.20;17.80;;;;;;;-7.30;72.61;100379.44;86151;1305;78159;-70
2021/12/28 00:31:54;;;;;;;38.60;17.30;;;;;;;-7.34;72.79;100382.27;86144;1305;81929;-63
2021/12/28 00:34:04;;;;;;;36.80;15.10;;;;;;;-7.39;72.87;100388.48;86115;1303;97009;-62
2021/12/28 00:36:14;;;;;;;41.40;17.40;;;;;;;-7.43;72.79;100388.83;86133;1304;85460;-62
2021/12/28 00:38:27;;;;;;;38.90;16.80;;;;;;;-7.48;72.92;100385.77;85972;1305;95592;-61
2021/12/28 00:40:39;;;;;;;40.60;16.90;;;;;;;-7.49;73.02;100381.46;86104;1308;81013;-60
2021/12/28 00:42:50;;;;;;;40.70;17.60;;;;;;;-7.58;73.15;100382.44;86143;1308;80793;-62
2021/12/28 00:45:00;;;;;;;38.50;17.60;;;;;;;-7.62;73.41;100381.05;86149;1304;99823;-62
2021/12/28 00:47:11;;;;;;;39.50;17.90;;;;;;;-7.58;73.46;100385.77;86170;1308;87721;-66
2021/12/28 00:49:20;;;;;;;40.20;18.30;;;;;;;-7.64;73.10;100384.67;86181;1308;94845;-66
2021/12/28 00:51:31;;;;;;;35.00;17.10;;;;;;;-7.64;73.73;100384.29;86164;1303;81096;-62
2021/12/28 00:53:43;;;;;;;38.70;17.20;;;;;;;-7.63;73.51;100386.38;86171;1305;82223;-62
2021/12/28 00:55:53;;;;;;;29.80;14.50;;;;;;;-7.65;73.25;100384.70;86144;1303;100015;-63
2021/12/28 00:58:04;;;;;;;37.30;15.60;;;;;;;-7.68;73.57;100384.52;86006;1308;89024;-62
2021/12/28 01:00:17;;;;;;;38.40;16.90;;;;;;;-7.72;73.60;100387.88;86134;1308;96193;-61
2021/12/28 01:02:30;;;;;;;40.10;18.40;;;;;;;-7.70;73.55;100388.45;86156;1304;81398;-69
2021/12/28 01:04:40;;;;;;;40.40;18.00;;;;;;;-7.70;73.52;100387.58;86157;1305;82523;-67
2021/12/28 01:06:53;;;;;;;42.10;17.60;;;;;;;-7.74;73.66;100383.23;86120;1303;98778;-61
2021/12/28 01:09:02;;;;;;;35.20;15.70;;;;;;;-7.77;73.81;100390.91;86163;1305;86040;-62
2021/12/28 01:11:11;;;;;;;39.50;18.70;;;;;;;-7.82;74.06;100387.30;86089;1301;93450;-63
2021/12/28 01:13:24;;;;;;;40.60;18.40;;;;;;;-7.84;74.13;100378.14;86137;1299;81012;-63
2021/12/28 01:15:34;;;;;;;;;;;;;;;-7.88;73.89;100379.20;86175;1309;82929;-61
2021/12/28 01:17:43;;;;;;;38.30;17.90;;;;;;;-7.91;74.04;100380.91;86134;1303;98646;-69
2021/12/28 01:19:52;;;;;;;36.10;15.60;;;;;;;-7.93;74.17;100375.23;86084;1310;88993;-67
2021/12/28 01:22:02;;;;;;;39.40;18.00;;;;;;;-7.95;74.26;100375.33;86111;1305;94097;-67
2021/12/28 01:24:12;;;;;;;40.10;18.70;;;;;;;-7.94;74.28;100375.98;86128;1304;81377;-68
2021/12/28 01:26:24;;;;;;;38.90;17.60;;;;;;;-7.92;74.32;100376.92;86153;1305;80176;-62
2021/12/28 01:28:37;;;;;;;40.20;18.10;;;;;;;-7.97;74.47;100370.73;86156;1305;100123;-61
2021/12/28 01:30:46;;;;;;;40.30;17.90;;;;;;;-8.00;74.30;100366.67;86144;1303;88937;-62
2021/12/28 01:32:57;;;;;;;40.00;16.70;;;;;;;-8.00;74.59;100370.70;86135;1305;95606;-68
2021/12/28 01:35:12;;;;;;;40.40;16.30;;;;;;;-7.99;74.47;100364.35;86129;1304;81787;-68
2021/12/28 01:37:21;;;;;;;35.50;17.10;;;;;;;-7.98;74.60;100364.30;86176;1305;82373;-69
2021/12/28 01:39:31;;;;;;;40.20;17.20;;;;;;;-7.99;74.57;100362.23;86132;1305;98411;-69
2021/12/28 01:41:40;;;;;;;37.50;17.70;;;;;;;-7.97;74.53;100362.49;86127;1303;89347;-63
2021/12/28 01:43:57;;;;;;;41.30;18.70;;;;;;;-7.96;74.50;100363.48;86091;1304;95764;-63
2021/12/28 01:46:08;;;;;;;37.40;17.80;;;;;;;-7.98;74.67;100364.49;86132;1305;79591;-65
2021/12/28 01:48:23;;;;;;;37.60;16.40;;;;;;;-8.01;74.91;100366.41;86139;1303;81825;-63
2021/12/28 01:50:36;;;;;;;35.40;16.80;;;;;;;-8.02;74.85;100366.27;86090;1309;99445;-63
2021/12/28 01:52:48;;;;;;;38.80;17.80;;;;;;;-8.02;74.79;100359.77;86160;1305;88174;-63
2021/12/28 01:54:58;;;;;;;40.60;17.60;;;;;;;-8.00;74.37;100357.41;86116;1303;94740;-62
2021/12/28 01:57:08;;;;;;;38.90;17.30;;;;;;;-8.03;74.68;100353.55;86138;1305;82654;-62
2021/12/28 01:59:22;;;;;;;38.80;17.50;;;;;;;-8.03;74.78;100352.33;86150;1303;81329;-62
2021/12/28 02:01:32;;;;;;;38.70;16.90;;;;;;;-8.05;75.12;100348.58;86168;1303;99920;-65
2021/12/28 02:03:43;;;;;;;39.10;17.30;;;;;;;-8.07;75.27;100345.88;86122;1305;89059;-65
2021/12/28 02:05:55;;;;;;;37.40;16.70;;;;;;;-8.03;75.15;100348.83;86089;1299;93057;-65
2021/12/28 02:08:09;;;;;;;41.90;17.70;;;;;;;-8.00;74.74;100353.23;86144;1304;80657;-65
2021/12/28 02:10:19;;;;;;;33.80;16.40;;;;;;;-8.00;75.15;100354.63;86145;1304;82366;-65
2021/12/28 02:12:33;;;;;;;37.70;17.20;;;;;;;-7.99;75.19;100350.21;86140;1304;100007;-63
2021/12/28 02:14:45;;;;;;;42.20;18.30;;;;;;;-8.01;75.05;100354.13;86153;1304;88652;-62
2021/12/28 02:16:58;;;;;;;39.40;18.30;;;;;;;-7.96;74.99;100357.20;86105;1305;92701;-63
2021/12/28 02:19:08;;;;;;;39.50;19.20;;;;;;;-7.96;75.13;100350.77;85968;1300;79107;-62
2021/12/28 02:21:20;;;;;;;37.80;18.50;;;;;;;-7.94;75.14;100350.46;86130;1305;82737;-65
2021/12/28 02:23:29;;;;;;;39.10;17.60;;;;;;;-7.91;75.43;100346.15;86137;1305;99513;-66
2021/12/28 02:25:42;;;;;;;36.30;17.30;;;;;;;-7.90;75.19;100347.33;86084;1308;89132;-68
2021/12/28 02:27:54;;;;;;;38.40;17.50;;;;;;;-7.92;74.95;100347.39;86152;1305;93248;-65
2021/12/28 02:30:10;;;;;;;42.00;18.90;;;;;;;-8.00;75.39;100341.35;85831;1305;431498;-65
2021/12/28 02:32:20;;;;;;;39.80;18.90;;;;;;;-8.06;75.26;100343.55;86188;1308;81383;-62
2021/12/28 02:34:31;;;;;;;40.10;18.70;;;;;;;-8.03;75.37;100333.29;86141;1304;100199;-62
2021/12/28 02:36:43;;;;;;;41.60;17.90;;;;;;;-8.03;75.59;100329.27;86145;1308;88127;-61
2021/12/28 02:38:56;;;;;;;55.00;22.40;;;;;;;-8.01;75.41;100323.91;86165;1305;94908;-62
2021/12/28 02:41:15;;;;;;;41.10;19.00;;;;;;;-8.02;75.61;100321.52;86139;1305;78342;-62
2021/12/28 02:43:27;;;;;;;36.90;16.50;;;;;;;-8.00;75.57;100320.02;86145;1308;80868;-69
2021/12/28 02:45:39;;;;;;;69.40;24.40;;;;;;;-8.05;75.66;100317.66;86179;1297;99750;-69
2021/12/28 02:47:50;;;;;;;50.20;19.70;;;;;;;-8.03;75.53;100316.36;86120;1304;89105;-70
2021/12/28 02:49:59;;;;;;;40.30;17.70;;;;;;;-8.06;75.70;100315.77;86124;1304;95421;-69
2021/12/28 02:52:11;;;;;;;40.40;17.90;;;;;;;-8.08;75.73;100313.60;86127;1305;78792;-63
2021/12/28 02:54:20;;;;;;;51.40;20.40;;;;;;;-8.06;75.89;100304.77;86177;1301;80191;-64
2021/12/28 02:56:30;;;;;;;56.90;23.40;;;;;;;-8.07;75.72;100303.44;86139;1308;99175;-68
2021/12/28 02:58:43;;;;;;;42.70;21.40;;;;;;;-8.09;76.05;100296.40;86116;1302;88508;-69
2021/12/28 03:00:56;;;;;;;63.50;23.70;;;;;;;-8.08;76.04;100295.64;86104;1308;95891;-69
2021/12/28 03:03:10;;;;;;;49.80;19.70;;;;;;;-8.05;75.86;100298.09;86143;1305;80888;-63
2021/12/28 03:05:19;;;;;;;47.50;20.60;;;;;;;-8.09;76.24;100303.22;86175;1305;82127;-68
2021/12/28 03:07:31;;;;;;;42.50;19.00;;;;;;;-8.08;75.90;100306.45;86162;1303;99090;-64
2021/12/28 03:09:41;;;;;;;52.10;22.60;;;;;;;-8.07;75.96;100306.07;86141;1304;89661;-63
2021/12/28 03:11:50;;;;;;;48.70;20.40;;;;;;;-8.03;76.08;100303.06;86158;1308;95420;-64
2021/12/28 03:14:03;;;;;;;49.10;21.10;;;;;;;-8.00;76.16;100297.86;86135;1304;80613;-64
2021/12/28 03:16:13;;;;;;;51.60;21.40;;;;;;;-8.00;76.02;100292.06;86159;1305;82878;-69
2021/12/28 03:18:23;;;;;;;48.50;20.70;;;;;;;-8.02;75.90;100290.92;86089;1304;99744;-64
2021/12/28 03:20:32;;;;;;;50.20;21.50;;;;;;;-8.00;75.99;100284.55;86026;1304;88657;-65
2021/12/28 03:22:42;;;;;;;46.60;19.80;;;;;;;-7.98;76.18;100271.70;86126;1305;95311;-65
2021/12/28 03:24:51;;;;;;;50.60;20.20;;;;;;;-7.97;76.46;100270.96;86167;1305;81348;-66
2021/12/28 03:27:01;;;;;;;42.10;19.00;;;;;;;-7.98;76.33;100276.95;86102;1305;82384;-64
2021/12/28 03:29:11;;;;;;;55.10;22.20;;;;;;;-8.01;76.40;100276.93;86124;1301;98813;-65
2021/12/28 03:31:23;;;;;;;57.40;24.10;;;;;;;-8.02;76.16;100279.45;86149;1299;87609;-63
2021/12/28 03:33:34;;;;;;;44.20;20.40;;;;;;;-8.00;76.24;100278.98;86129;1304;94373;-64
2021/12/28 03:35:44;;;;;;;36.30;17.90;;;;;;;-8.02;76.46;100283.80;86115;1301;79543;-62
2021/12/28 03:37:54;;;;;;;42.00;19.00;;;;;;;-7.98;76.49;100279.41;86137;1308;83247;-68
2021/12/28 03:40:05;;;;;;;42.90;19.90;;;;;;;-7.95;76.54;100274.00;86149;1307;99452;-70
2021/12/28 03:42:15;;;;;;;47.60;21.80;;;;;;;-7.93;76.65;100270.20;86168;1305;89266;-68
2021/12/28 03:44:25;;;;;;;35.60;16.60;;;;;;;-7.98;76.89;100267.33;86110;1299;94150;-68
2021/12/28 03:46:34;;;;;;;49.10;23.30;;;;;;;-8.01;77.01;100266.07;86170;1304;80350;-63
2021/12/28 03:48:44;;;;;;;51.20;22.00;;;;;;;-7.98;76.73;100261.40;86144;1303;83185;-63
2021/12/28 03:50:54;;;;;;;47.40;20.50;;;;;;;-7.99;76.99;100264.77;86136;1305;99295;-63
2021/12/28 03:53:05;;;;;;;49.70;20.50;;;;;;;-7.97;76.84;100265.34;86127;1305;88373;-68
2021/12/28 03:55:16;;;;;;;39.90;19.10;;;;;;;-7.95;76.81;100263.70;85968;1308;94182;-68
2021/12/28 03:57:25;;;;;;;41.90;19.10;;;;;;;-7.95;77.19;100263.87;86125;1304;77607;-64
2021/12/28 03:59:35;;;;;;;44.20;19.50;;;;;;;-7.90;77.08;100263.25;86121;1303;81563;-62
2021/12/28 04:01:45;;;;;;;48.20;21.50;;;;;;;-7.93;77.07;100265.16;86129;1305;99507;-63
2021/12/28 04:03:58;;;;;;;45.20;21.30;;;;;;;-7.94;77.18;100256.14;86133;1304;88246;-65
2021/12/28 04:06:09;;;;;;;40.70;17.90;;;;;;;-7.94;77.26;100253.67;86165;1305;94611;-63
2021/12/28 04:08:22;;;;;;;41.60;17.70;;;;;;;-7.92;76.88;100258.13;86132;1304;78953;-64
2021/12/28 04:10:48;;;;;;;41.80;19.30;;;;;;;-7.95;77.06;100258.27;86052;1304;82991;-65
2021/12/28 04:12:58;;;;;;;36.40;18.10;;;;;;;-7.95;77.25;100257.37;86115;1308;100007;-66
2021/12/28 04:15:13;;;;;;;41.10;19.20;;;;;;;-7.96;77.08;100256.05;86142;1304;87600;-66
2021/12/28 04:17:23;;;;;;;41.80;19.80;;;;;;;-7.95;76.92;100255.66;86100;1308;93171;-65
2021/12/28 04:19:32;;;;;;;44.30;20.90;;;;;;;-7.95;77.11;100249.02;86138;1305;79449;-67
2021/12/28 04:21:45;;;;;;;37.90;17.50;;;;;;;-7.96;77.25;100246.46;86177;1305;81368;-65
2021/12/28 04:23:55;;;;;;;38.10;18.60;;;;;;;-7.96;77.47;100250.83;86135;1305;98415;-69
2021/12/28 04:26:06;;;;;;;39.20;18.30;;;;;;;-7.95;77.58;100245.55;86140;1299;87334;-69
2021/12/28 04:28:15;;;;;;;44.80;20.40;;;;;;;-7.97;77.40;100243.37;86138;1304;94142;-67
2021/12/28 04:30:24;;;;;;;38.30;18.00;;;;;;;-7.96;77.37;100235.80;86143;1303;79361;-69
2021/12/28 04:32:34;;;;;;;43.40;18.40;;;;;;;-7.97;77.53;100232.16;86130;1304;81707;-69
2021/12/28 04:34:44;;;;;;;40.00;19.40;;;;;;;-7.96;77.40;100231.23;86144;1303;99894;-69
2021/12/28 04:36:57;;;;;;;37.30;18.60;;;;;;;-7.99;77.42;100233.33;86018;1304;89567;-63
2021/12/28 04:39:07;;;;;;;47.40;18.60;;;;;;;-7.96;77.65;100234.56;86121;1305;95681;-63
2021/12/28 04:41:17;;;;;;;36.30;19.00;;;;;;;-7.98;77.53;100231.67;86125;1304;81778;-64
2021/12/28 04:43:26;;;;;;;39.30;19.10;;;;;;;-8.01;77.52;100229.59;86140;1304;82457;-65
2021/12/28 04:45:37;;;;;;;38.90;18.80;;;;;;;-8.01;77.47;100230.10;86118;1305;97218;-70
2021/12/28 04:47:47;;;;;;;35.90;18.30;;;;;;;-8.00;77.76;100233.05;86169;1305;88235;-66
2021/12/28 04:49:56;;;;;;;43.80;19.70;;;;;;;-7.97;78.01;100230.79;86133;1304;94876;-67
2021/12/28 04:52:06;;;;;;;36.90;17.40;;;;;;;-8.01;77.76;100238.11;86123;1302;79939;-60
2021/12/28 04:54:17;;;;;;;39.60;18.80;;;;;;;-8.03;78.00;100236.65;86160;1299;80545;-62
2021/12/28 04:56:26;;;;;;;42.40;19.70;;;;;;;-8.03;78.01;100240.36;86153;1301;97430;-61
2021/12/28 04:58:36;;;;;;;37.70;18.10;;;;;;;-8.02;77.93;100238.90;86163;1305;89513;-62
2021/12/28 05:00:49;;;;;;;43.20;20.50;;;;;;;-8.01;78.04;100237.77;86140;1304;94507;-64
2021/12/28 05:02:58;;;;;;;40.00;19.60;;;;;;;-7.96;77.72;100235.09;86101;1304;79789;-69
2021/12/28 05:05:09;;;;;;;39.40;17.60;;;;;;;-7.95;78.10;100236.79;86154;1305;83049;-70
2021/12/28 05:07:19;;;;;;;42.00;19.40;;;;;;;-7.96;77.66;100232.29;86144;1299;99214;-63
2021/12/28 05:09:28;;;;;;;44.10;20.20;;;;;;;-7.97;77.83;100234.45;86141;1301;88261;-62
2021/12/28 05:11:41;;;;;;;37.80;17.50;;;;;;;-7.98;78.12;100239.17;86163;1305;95199;-63
2021/12/28 05:13:50;;;;;;;33.10;18.10;;;;;;;-7.92;78.43;100237.45;86167;1304;79138;-63
2021/12/28 05:16:00;;;;;;;37.70;18.30;;;;;;;-7.90;78.39;100241.92;86147;1303;82490;-61
2021/12/28 05:18:10;;;;;;;38.50;18.70;;;;;;;-7.88;78.40;100236.79;86143;1304;100746;-69
2021/12/28 05:20:23;;;;;;;41.30;19.50;;;;;;;-7.88;78.34;100238.50;86158;1304;88902;-67
2021/12/28 05:22:32;;;;;;;40.00;18.20;;;;;;;-7.83;78.15;100238.96;86117;1299;95641;-62
2021/12/28 05:24:42;;;;;;;36.70;17.70;;;;;;;-7.83;78.48;100236.69;86134;1308;79132;-62
2021/12/28 05:26:52;;;;;;;38.20;18.30;;;;;;;-7.74;78.62;100230.84;86154;1303;83077;-61
2021/12/28 05:29:05;;;;;;;39.70;20.40;;;;;;;-7.69;78.61;100232.65;86139;1303;100223;-62
2021/12/28 05:31:15;;;;;;;33.20;16.50;;;;;;;-7.64;78.66;100231.53;86145;1305;87987;-67
2021/12/28 05:33:24;;;;;;;38.20;18.40;;;;;;;-7.55;78.44;100232.13;86128;1303;94985;-67
2021/12/28 05:35:34;;;;;;;37.80;19.00;;;;;;;-7.53;78.46;100226.40;86136;1303;81445;-70
2021/12/28 05:37:44;;;;;;;41.90;19.90;;;;;;;-7.43;78.77;100220.59;86121;1303;79718;-70
2021/12/28 05:39:54;;;;;;;37.90;18.10;;;;;;;-7.38;78.48;100220.83;86135;1305;98645;-73
2021/12/28 05:42:04;;;;;;;38.20;19.50;;;;;;;-7.31;78.61;100226.95;86132;1305;88620;-65
2021/12/28 05:44:17;;;;;;;39.10;19.60;;;;;;;-7.23;78.48;100231.09;86177;1303;94537;-66
2021/12/28 05:46:26;;;;;;;31.00;15.20;;;;;;;-7.13;78.28;100234.95;86160;1304;79639;-66
2021/12/28 05:48:39;;;;;;;35.90;19.30;;;;;;;-7.12;78.57;100232.43;86190;1304;83440;-65
2021/12/28 05:50:49;;;;;;;39.50;19.50;;;;;;;-7.05;78.41;100225.01;86144;1305;97952;-65
2021/12/28 05:52:58;;;;;;;36.10;18.20;;;;;;;-6.97;78.71;100217.39;86114;1305;88335;-66
2021/12/28 05:55:08;;;;;;;35.70;17.80;;;;;;;-6.90;78.26;100221.41;86147;1305;95021;-64
2021/12/28 05:57:18;;;;;;;40.10;18.70;;;;;;;-6.84;78.20;100224.73;86164;1305;79230;-72
2021/12/28 05:59:30;;;;;;;35.70;17.40;;;;;;;-6.80;78.25;100231.70;86175;1305;83241;-74
2021/12/28 06:01:40;;;;;;;29.30;16.10;;;;;;;-6.72;78.15;100238.92;86167;1305;99314;-63
2021/12/28 06:03:50;;;;;;;35.60;18.10;;;;;;;-6.72;78.42;100238.23;86172;1308;86752;-66
2021/12/28 06:05:58;;;;;;;37.40;18.00;;;;;;;-6.66;78.59;100240.69;86110;1303;95401;-64
2021/12/28 06:08:08;;;;;;;39.30;18.70;;;;;;;-6.58;78.39;100238.66;86131;1305;81191;-71
2021/12/28 06:10:17;;;;;;;37.00;18.00;;;;;;;-6.51;78.15;100238.66;86132;1304;80404;-72
2021/12/28 06:12:28;;;;;;;39.00;17.70;;;;;;;-6.46;78.27;100243.42;86155;1306;98426;-72
2021/12/28 06:14:40;;;;;;;39.10;17.50;;;;;;;-6.46;78.27;100243.79;86144;1304;89356;-71
2021/12/28 06:16:49;;;;;;;38.60;18.90;;;;;;;-6.43;78.19;100241.89;86112;1308;95271;-66
2021/12/28 06:18:58;;;;;;;34.20;17.80;;;;;;;-6.36;78.17;100243.74;86113;1305;80910;-67
2021/12/28 06:21:08;;;;;;;33.10;17.60;;;;;;;-6.32;78.08;100238.80;86117;1304;82144;-70
2021/12/28 06:23:17;;;;;;;33.20;17.20;;;;;;;-6.34;78.09;100240.80;86139;1305;99797;-71
2021/12/28 06:25:29;;;;;;;35.90;17.80;;;;;;;-6.36;77.80;100231.48;86151;1304;88527;-71
2021/12/28 06:27:38;;;;;;;37.30;17.70;;;;;;;-6.31;78.04;100230.67;86152;1303;95214;-70
2021/12/28 06:29:51;;;;;;;35.30;18.70;;;;;;;-6.33;77.96;100230.58;86114;1304;79900;-72
2021/12/28 06:32:00;;;;;;;35.70;18.60;;;;;;;-6.30;78.29;100227.30;86154;1308;80632;-71
2021/12/28 06:34:09;;;;;;;39.10;18.20;;;;;;;-6.31;78.35;100226.32;86171;1308;99612;-71
2021/12/28 06:36:19;;;;;;;37.80;18.10;;;;;;;-6.26;78.35;100224.09;86141;1303;88934;-70
2021/12/28 06:38:28;;;;;;;57.40;26.00;;;;;;;-6.26;78.42;100221.98;86110;1305;94808;-71
2021/12/28 06:40:40;;;;;;;47.30;23.40;;;;;;;-6.23;78.25;100219.70;86113;1304;80489;-71
2021/12/28 06:42:52;;;;;;;35.10;18.10;;;;;;;-6.22;78.12;100220.49;86129;1304;82818;-64
2021/12/28 06:45:01;;;;;;;31.30;14.90;;;;;;;-6.21;78.25;100217.44;86166;1303;97859;-64
2021/12/28 06:47:11;;;;;;;31.20;15.10;;;;;;;-6.27;78.23;100218.52;86159;1304;87166;-61
2021/12/28 06:49:24;;;;;;;32.60;17.60;;;;;;;-6.28;78.26;100218.04;86131;1300;94335;-62
2021/12/28 06:51:33;;;;;;;35.70;18.70;;;;;;;-6.25;78.40;100227.69;86162;1303;78929;-68
2021/12/28 06:53:45;;;;;;;34.20;18.50;;;;;;;-6.16;78.12;100227.66;86176;1300;81621;-67
2021/12/28 06:55:55;;;;;;;35.10;18.10;;;;;;;-6.13;78.23;100232.77;86180;1308;97817;-66
2021/12/28 06:58:05;;;;;;;32.30;18.10;;;;;;;-6.05;78.22;100235.96;86209;1304;88691;-65
2021/12/28 07:00:19;;;;;;;36.20;18.10;;;;;;;-5.99;78.09;100237.88;86110;1305;95121;-62
2021/12/28 07:02:29;;;;;;;37.30;18.00;;;;;;;-5.99;78.23;100237.41;86123;1308;80222;-62
2021/12/28 07:04:42;;;;;;;34.70;17.90;;;;;;;-6.02;78.38;100233.67;86151;1299;81677;-62
2021/12/28 07:06:51;;;;;;;36.10;19.20;;;;;;;-6.01;78.15;100236.08;86148;1305;99475;-62
2021/12/28 07:09:02;;;;;;;34.10;17.70;;;;;;;-6.03;78.42;100237.41;86144;1303;88198;-62
2021/12/28 07:11:13;;;;;;;32.10;18.00;;;;;;;-6.05;78.44;100235.78;86159;1304;94854;-63
2021/12/28 07:13:26;;;;;;;29.70;16.40;;;;;;;-6.03;78.11;100235.35;86150;1308;79409;-65
2021/12/28 07:15:39;;;;;;;34.50;18.40;;;;;;;-6.00;78.15;100228.35;86161;1305;82014;-66
2021/12/28 07:17:49;;;;;;;28.10;16.00;;;;;;;-5.95;78.13;100230.64;86127;1308;100600;-61
2021/12/28 07:19:59;;;;;;;37.20;18.90;;;;;;;-5.95;78.12;100224.89;86145;1305;87806;-60
2021/12/28 07:22:08;;;;;;;36.70;18.80;;;;;;;-5.92;78.18;100221.17;86132;1303;94659;-61
2021/12/28 07:24:19;;;;;;;36.00;17.00;;;;;;;-5.85;78.09;100219.74;86143;1305;79551;-62
2021/12/28 07:26:28;;;;;;;38.20;18.60;;;;;;;-5.84;78.22;100219.10;86127;1308;81137;-73
2021/12/28 07:28:38;;;;;;;36.80;19.20;;;;;;;-5.82;78.07;100214.61;86157;1303;99427;-69
2021/12/28 07:30:47;;;;;;;33.40;17.20;;;;;;;-5.83;78.09;100216.05;86157;1305;89066;-69
2021/12/28 07:33:00;;;;;;;34.50;17.50;;;;;;;-5.78;78.17;100207.89;86150;1305;93800;-62
2021/12/28 07:35:12;;;;;;;37.50;18.80;;;;;;;-5.82;78.28;100208.80;86158;1303;80492;-62
2021/12/28 07:37:24;;;;;;;33.60;17.90;;;;;;;-5.84;78.24;100207.55;86168;1304;81176;-69
2021/12/28 07:39:34;;;;;;;31.80;17.20;;;;;;;-5.83;77.96;100208.16;86161;1305;99696;-69
2021/12/28 07:41:45;;;;;;;37.60;19.80;;;;;;;-5.78;78.23;100201.90;86182;1305;87707;-65
2021/12/28 07:43:54;;;;;;;36.30;16.30;;;;;;;-5.71;78.25;100197.95;86155;1300;95097;-65
2021/12/28 07:46:05;;;;;;;38.80;18.40;;;;;;;-5.68;78.12;100198.66;86160;1304;80832;-72
2021/12/28 07:48:17;;;;;;;30.50;17.80;;;;;;;-5.70;78.36;100192.28;86164;1305;81991;-69
2021/12/28 07:50:27;;;;;;;36.40;18.10;;;;;;;-5.65;78.26;100193.55;86177;1304;98492;-70
2021/12/28 07:52:38;;;;;;;34.00;18.00;;;;;;;-5.62;78.27;100193.70;86119;1305;88523;-69
2021/12/28 07:54:48;;;;;;;37.40;20.00;;;;;;;-5.55;78.19;100192.08;86164;1304;96342;-69
2021/12/28 07:57:03;;;;;;;35.80;17.70;;;;;;;-5.51;78.15;100193.78;86157;1305;79228;-69
2021/12/28 07:59:13;;;;;;;28.70;16.80;;;;;;;-5.54;78.22;100190.42;86130;1303;80251;-70
2021/12/28 08:01:28;;;;;;;36.30;19.80;;;;;;;-5.54;78.53;100192.90;86140;1305;100714;-62
2021/12/28 08:03:38;;;;;;;33.90;17.10;;;;;;;-5.51;78.67;100196.38;86158;1303;87902;-60
2021/12/28 08:05:47;;;;;;;33.10;19.20;;;;;;;-5.43;78.25;100193.27;86104;1304;95269;-68
2021/12/28 08:07:57;;;;;;;37.20;20.10;;;;;;;-5.29;78.36;100198.22;86216;1305;79342;-69
2021/12/28 08:10:13;;;;;;;35.90;19.00;;;;;;;-5.31;78.46;100194.30;86160;1299;82076;-69
2021/12/28 08:12:22;;;;;;;38.40;19.90;;;;;;;-5.25;78.30;100194.29;86128;1308;98822;-66
2021/12/28 08:14:32;;;;;;;35.80;19.40;;;;;;;-5.24;78.07;100192.45;86140;1305;87520;-61
2021/12/28 08:16:42;;;;;;;41.00;21.10;;;;;;;-5.25;78.36;100189.16;86163;1308;95362;-62
2021/12/28 08:18:51;;;;;;;40.10;19.90;;;;;;;-5.17;78.15;100190.77;86094;1283;82068;-62
2021/12/28 08:21:01;;;;;;;37.90;20.10;;;;;;;-5.11;78.35;100187.92;85994;1305;80815;-61
2021/12/28 08:23:11;;;;;;;36.60;19.60;;;;;;;-5.14;77.98;100186.52;85900;1307;99529;-61
2021/12/28 08:25:23;;;;;;;47.40;22.90;;;;;;;-5.08;78.11;100185.12;85868;1311;88270;-64
2021/12/28 08:27:38;;;;;;;33.40;17.50;;;;;;;-5.01;77.91;100182.38;85916;1307;93553;-63
2021/12/28 08:29:50;;;;;;;36.70;17.90;;;;;;;-4.93;77.86;100184.46;85854;1308;80688;-63
2021/12/28 08:32:03;;;;;;;32.30;18.80;;;;;;;-4.96;77.96;100186.47;85929;1307;81927;-71
2021/12/28 08:34:14;;;;;;;31.50;17.70;;;;;;;-4.95;77.80;100198.15;85910;1307;98507;-69
2021/12/28 08:36:24;;;;;;;30.50;17.80;;;;;;;-4.87;77.87;100199.39;85895;1307;88958;-70
2021/12/28 08:38:33;;;;;;;50.00;23.70;;;;;;;-4.81;77.61;100197.57;85842;1311;94289;-62
2021/12/28 08:40:47;;;;;;;54.00;23.40;;;;;;;-4.86;77.91;100192.29;85898;1307;80200;-68
2021/12/28 08:42:58;;;;;;;36.40;17.50;;;;;;;-4.86;77.63;100192.65;85918;1310;80887;-69
2021/12/28 08:45:12;;;;;;;31.30;20.20;;;;;;;-4.95;77.88;100188.30;85908;1306;100892;-68
2021/12/28 08:47:26;;;;;;;33.80;19.00;;;;;;;-4.90;77.90;100182.92;85888;1307;86494;-70
2021/12/28 08:49:36;;;;;;;31.20;18.50;;;;;;;-4.85;77.87;100173.96;85912;1304;95355;-62
2021/12/28 08:51:52;;;;;;;33.10;18.90;;;;;;;-4.80;77.81;100177.19;85905;1307;79347;-70
2021/12/28 08:54:08;;;;;;;34.60;19.50;;;;;;;-4.80;77.62;100171.02;85894;1307;81569;-61
2021/12/28 08:56:20;;;;;;;35.20;18.60;;;;;;;-4.79;77.80;100166.54;85865;1307;100164;-61
2021/12/28 08:58:33;;;;;;;32.50;19.60;;;;;;;-4.64;77.82;100168.07;85889;1306;87909;-70
2021/12/28 09:00:43;;;;;;;34.00;18.90;;;;;;;-4.56;77.38;100169.23;85854;1311;95836;-75
2021/12/28 09:02:55;;;;;;;35.10;18.90;;;;;;;-4.60;76.94;100175.17;85920;1305;78993;-63
2021/12/28 09:05:05;;;;;;;33.30;18.90;;;;;;;-4.62;77.34;100168.97;85937;1307;80984;-63
2021/12/28 09:07:16;;;;;;;32.30;15.60;;;;;;;-4.56;77.11;100172.61;85925;1307;99944;-62
2021/12/28 09:09:26;;;;;;;34.10;18.80;;;;;;;-4.68;77.30;100164.46;85898;1304;89720;-64
2021/12/28 09:11:36;;;;;;;35.00;19.70;;;;;;;-4.62;77.48;100160.91;85901;1307;95289;-62
2021/12/28 09:13:49;;;;;;;35.70;18.60;;;;;;;-4.68;77.18;100161.61;85863;1310;77898;-62
2021/12/28 09:16:01;;;;;;;35.80;19.10;;;;;;;-4.79;77.25;100155.86;85912;1307;79696;-66
2021/12/28 09:18:10;;;;;;;36.40;18.10;;;;;;;-4.82;77.35;100157.60;85925;1311;97294;-63
2021/12/28 09:20:24;;;;;;;33.40;18.30;;;;;;;-4.82;77.45;100147.61;85801;1307;88859;-68
2021/12/28 09:22:33;;;;;;;33.30;18.30;;;;;;;-4.81;77.31;100146.82;85863;1314;95185;-69
2021/12/28 09:24:43;;;;;;;32.90;19.50;;;;;;;-4.77;77.34;100140.98;85857;1307;78906;-69
2021/12/28 09:26:56;;;;;;;34.00;18.80;;;;;;;-4.68;77.69;100138.48;85912;1311;82604;-70
2021/12/28 09:29:06;;;;;;;33.60;18.80;;;;;;;-4.67;77.51;100136.98;85790;1307;98498;-63
2021/12/28 09:31:17;;;;;;;29.70;19.40;;;;;;;-4.62;77.26;100128.06;85886;1307;86092;-62
2021/12/28 09:33:26;;;;;;;24.60;14.10;;;;;;;-4.57;77.59;100128.73;85868;1310;93697;-71
2021/12/28 09:35:35;;;;;;;33.60;18.30;;;;;;;-4.59;77.37;100124.29;85857;1306;79322;-71
2021/12/28 09:37:48;;;;;;;33.80;18.60;;;;;;;-4.52;77.48;100111.56;85925;1306;81034;-70
2021/12/28 09:39:59;;;;;;;35.30;18.70;;;;;;;-4.44;77.60;100105.02;85910;1311;99080;-69
2021/12/28 09:42:10;;;;;;;32.40;19.40;;;;;;;-4.38;77.26;100105.52;85924;1307;89356;-69
2021/12/28 09:44:20;;;;;;;30.90;17.20;;;;;;;-4.46;77.21;100100.23;85785;1307;95281;-63
2021/12/28 09:46:29;;;;;;;27.80;16.90;;;;;;;-4.44;77.43;100106.80;85879;1299;78689;-65
2021/12/28 09:48:40;;;;;;;32.80;18.00;;;;;;;-4.42;77.60;100100.65;85902;1311;83582;-63
2021/12/28 09:50:53;;;;;;;32.50;18.40;;;;;;;-4.37;77.50;100102.47;85853;1307;97529;-63
2021/12/28 09:53:04;;;;;;;33.90;18.30;;;;;;;-4.29;77.57;100110.00;85911;1307;88931;-63
2021/12/28 09:55:16;;;;;;;31.00;17.10;;;;;;;-4.24;77.58;100113.32;85898;1299;94535;-63